Time;durP1;ratioP1;P1;durP2;ratioP2;P2;SDS_P1;SDS_P2;PMS_P1;PMS_P2;Temp;Humidity;BMP_temperature;BMP_pressure;BME280_temperature;BME280_humidity;BME280_pressure;Samples;Min_cycle;Max_cycle;Signal;HPM_P1;HPM_P2
2021/12/25 00:01:53;;;;;;;2.60;1.08;;;;;;;-4.00;70.66;100968.06;5020550;28;20033;-70
2021/12/25 00:04:19;;;;;;;3.58;1.40;;;;;;;-3.99;70.36;100967.09;5027538;28;20029;-70
2021/12/25 00:06:44;;;;;;;2.95;1.50;;;;;;;-3.98;70.42;100966.13;5022347;28;20033;-70
2021/12/25 00:09:10;;;;;;;4.28;1.60;;;;;;;-4.05;70.54;100959.03;5004340;28;20034;-70
2021/12/25 00:11:35;;;;;;;5.25;1.50;;;;;;;-4.12;70.46;100974.50;5020498;28;20033;-70
2021/12/25 00:14:09;;;;;;;3.47;1.30;;;;;;;-4.10;70.95;100967.31;5004729;28;20021;-70
2021/12/25 00:16:34;;;;;;;2.00;1.10;;;;;;;-4.07;70.92;100968.81;5019525;28;20028;-70
2021/12/25 00:19:00;;;;;;;2.58;1.30;;;;;;;-4.04;70.33;100971.13;5002013;28;20037;-70
2021/12/25 00:21:25;;;;;;;3.83;1.23;;;;;;;-4.05;70.68;100970.31;5022845;28;20670;-70
2021/12/25 00:23:51;;;;;;;1.25;0.98;;;;;;;-4.03;70.60;100967.53;5021453;28;20109;-70
2021/12/25 00:26:36;;;;;;;1.58;0.90;;;;;;;-4.04;70.81;100974.56;5019334;28;20075;-71
2021/12/25 00:29:16;;;;;;;4.28;1.42;;;;;;;-4.12;70.47;100977.13;5021369;28;20601;-70
2021/12/25 00:32:08;;;;;;;2.47;0.85;;;;;;;-4.22;69.55;100983.34;5005041;28;20041;-70
2021/12/25 00:34:27;;;;;;;4.72;1.00;;;;;;;-4.37;70.80;100990.88;5023131;28;20033;-70
2021/12/25 00:36:53;;;;;;;2.05;1.20;;;;;;;-4.40;70.95;100999.84;5027638;28;20833;-70
2021/12/25 00:39:18;;;;;;;1.50;0.90;;;;;;;-4.37;71.16;100998.72;5026580;28;20044;-71
2021/12/25 00:41:44;;;;;;;1.88;0.95;;;;;;;-4.32;71.47;101006.94;5005343;28;20041;-71
2021/12/25 00:44:09;;;;;;;2.47;0.80;;;;;;;-4.31;70.85;101004.22;5027140;28;20030;-70
2021/12/25 00:46:35;;;;;;;1.67;0.80;;;;;;;-4.29;70.33;101009.28;5007192;28;20029;-70
2021/12/25 00:49:00;;;;;;;1.77;1.13;;;;;;;-4.27;70.51;101012.59;5012582;28;20090;-70
2021/12/25 00:51:26;;;;;;;1.90;1.00;;;;;;;-4.24;70.38;101006.22;5023097;28;20532;-70
2021/12/25 00:53:51;;;;;;;2.78;1.40;;;;;;;-4.25;70.00;101021.09;5024159;28;20860;-71
2021/12/25 00:56:17;;;;;;;3.53;1.63;;;;;;;-4.29;70.11;101019.75;5022924;28;20148;-70
2021/12/25 00:58:42;;;;;;;2.25;1.15;;;;;;;-4.43;69.86;101022.84;5024080;28;20040;-70
2021/12/25 01:01:08;;;;;;;4.70;1.45;;;;;;;-4.68;69.54;101024.28;5005357;28;20398;-70
2021/12/25 01:03:34;;;;;;;1.70;1.02;;;;;;;-4.78;70.23;101033.97;5024655;28;20020;-70
2021/12/25 01:05:59;;;;;;;2.65;1.10;;;;;;;-4.77;70.81;101033.00;5023753;28;20121;-70
2021/12/25 01:08:25;;;;;;;2.47;0.80;;;;;;;-4.72;70.69;101041.22;5005757;28;20021;-70
2021/12/25 01:10:51;;;;;;;0.75;0.70;;;;;;;-4.69;70.90;101046.16;5018048;28;20034;-70
2021/12/25 01:13:24;;;;;;;1.20;0.80;;;;;;;-4.67;70.08;101047.72;5024096;28;20036;-70
2021/12/25 01:34:10;;;;;;;0.93;0.80;;;;;;;-4.69;69.93;101065.28;5024386;28;20447;-71
2021/12/25 01:39:58;;;;;;;1.25;0.70;;;;;;;-4.74;69.61;101077.97;5026397;28;20587;-71
2021/12/25 01:47:51;;;;;;;1.52;0.65;;;;;;;-4.78;69.15;101088.84;5022128;28;20036;-71
2021/12/25 01:50:26;;;;;;;1.70;0.82;;;;;;;-4.84;69.08;101092.03;5008585;28;20057;-71
2021/12/25 01:52:53;;;;;;;1.40;0.88;;;;;;;-4.87;69.73;101082.66;5023318;28;20061;-71
2021/12/25 01:55:25;;;;;;;1.13;0.98;;;;;;;-4.90;69.48;101090.78;5021666;28;20041;-71
2021/12/25 01:57:53;;;;;;;4.18;0.85;;;;;;;-4.96;69.60;101088.75;5022739;28;20060;-71
2021/12/25 02:00:28;;;;;;;2.40;0.90;;;;;;;-5.00;68.93;101095.22;5023996;28;20739;-71
2021/12/25 02:02:55;;;;;;;2.60;1.10;;;;;;;-5.03;69.08;101100.69;5023129;28;20037;-71
2021/12/25 02:05:20;;;;;;;2.30;0.95;;;;;;;-5.06;68.80;101100.97;5023542;28;20052;-71
2021/12/25 02:07:47;;;;;;;2.20;1.08;;;;;;;-5.08;68.96;101100.28;5023590;28;20170;-71
2021/12/25 02:10:14;;;;;;;2.28;0.95;;;;;;;-5.11;69.04;101100.56;5002107;28;20109;-71
2021/12/25 02:12:41;;;;;;;1.40;0.88;;;;;;;-5.12;69.29;101104.16;5021896;28;20083;-71
2021/12/25 02:15:14;;;;;;;2.03;0.95;;;;;;;-5.14;69.25;101111.31;5020427;28;20033;-70
2021/12/25 02:20:32;;;;;;;1.88;0.85;;;;;;;-5.16;69.16;101108.84;5021690;28;20409;-70
2021/12/25 02:23:04;;;;;;;1.48;0.80;;;;;;;-5.18;69.29;101108.16;5019965;28;20176;-70
2021/12/25 02:25:35;;;;;;;0.88;0.63;;;;;;;-5.21;68.84;101111.88;5021108;28;20025;-70
2021/12/25 02:28:04;;;;;;;3.30;0.93;;;;;;;-5.22;68.95;101114.59;5022090;28;20453;-71
2021/12/25 02:30:30;;;;;;;0.98;0.70;;;;;;;-5.24;69.01;101117.34;5008432;28;20033;-71
2021/12/25 02:32:58;;;;;;;2.70;0.88;;;;;;;-5.25;68.97;101115.69;5020006;28;20128;-70
2021/12/25 02:35:25;;;;;;;1.67;0.80;;;;;;;-5.27;68.95;101122.00;5023220;28;20021;-70
2021/12/25 02:37:52;;;;;;;0.93;0.68;;;;;;;-5.27;69.33;101130.69;5026736;28;20039;-71
2021/12/25 02:40:18;;;;;;;1.70;0.90;;;;;;;-5.29;68.77;101139.59;5025841;28;20029;-70
2021/12/25 02:42:43;;;;;;;1.52;0.50;;;;;;;-5.32;69.09;101140.72;5022677;28;20404;-71
2021/12/25 02:45:17;;;;;;;0.75;0.60;;;;;;;-5.39;69.04;101142.19;5022699;28;20033;-70
2021/12/25 02:47:46;;;;;;;2.70;1.13;;;;;;;-5.41;69.22;101140.69;5020031;28;20045;-70
2021/12/25 02:50:12;;;;;;;1.95;0.52;;;;;;;-5.41;68.71;101140.69;5021546;28;20652;-71
2021/12/25 02:52:38;;;;;;;0.93;0.80;;;;;;;-5.41;69.11;101138.06;5021224;28;20033;-70
2021/12/25 02:55:05;;;;;;;1.33;0.90;;;;;;;-5.43;69.30;101142.59;5018353;28;20033;-70
2021/12/25 02:57:32;;;;;;;1.40;0.60;;;;;;;-5.45;69.24;101144.53;5019644;28;20116;-71
2021/12/25 02:59:57;;;;;;;1.17;0.85;;;;;;;-5.47;68.88;101147.28;5018596;28;20667;-70
2021/12/25 03:02:23;;;;;;;2.20;0.75;;;;;;;-5.49;69.16;101149.19;5021808;28;20064;-71
2021/12/25 03:04:49;;;;;;;1.05;0.60;;;;;;;-5.48;69.11;101154.28;5005547;28;20033;-71
2021/12/25 03:07:15;;;;;;;1.60;0.80;;;;;;;-5.50;69.11;101158.00;5022387;28;20029;-71
2021/12/25 03:09:41;;;;;;;3.40;0.60;;;;;;;-5.49;68.34;101164.88;5021773;28;20029;-70
2021/12/25 03:12:11;;;;;;;1.17;0.77;;;;;;;-5.53;68.33;101156.47;5020893;28;20033;-71
2021/12/25 03:14:50;;;;;;;2.20;0.80;;;;;;;-5.55;68.56;101168.03;5021072;28;20030;-70
2021/12/25 03:17:16;;;;;;;2.28;0.73;;;;;;;-5.59;68.55;101164.00;5005398;28;20556;-70
2021/12/25 03:19:42;;;;;;;1.65;0.70;;;;;;;-5.62;68.32;101159.88;5004265;28;20124;-70
2021/12/25 03:22:07;;;;;;;2.38;0.52;;;;;;;-5.62;68.22;101172.09;5021179;28;20087;-71
2021/12/25 03:24:34;;;;;;;2.05;0.75;;;;;;;-5.64;68.20;101172.25;5022424;28;20026;-71
2021/12/25 03:26:59;;;;;;;2.55;0.95;;;;;;;-5.65;68.19;101169.75;5020845;28;20029;-71
2021/12/25 03:29:26;;;;;;;0.82;0.63;;;;;;;-5.68;68.28;101181.31;5019125;28;20035;-70
2021/12/25 03:31:51;;;;;;;1.42;0.63;;;;;;;-5.71;68.60;101181.56;5005729;28;20104;-70
2021/12/25 03:34:18;;;;;;;1.35;0.75;;;;;;;-5.71;68.39;101183.34;5023549;28;20037;-71
2021/12/25 03:36:43;;;;;;;0.90;0.65;;;;;;;-5.79;67.92;101195.25;5022567;28;20033;-70
2021/12/25 03:39:09;;;;;;;2.33;1.35;;;;;;;-5.94;68.21;101191.38;5022726;28;20490;-70
2021/12/25 03:41:35;;;;;;;1.52;0.88;;;;;;;-6.17;67.80;101189.91;5020893;28;20079;-70
2021/12/25 03:44:01;;;;;;;1.33;0.73;;;;;;;-6.19;68.48;101192.63;5000850;28;20064;-70
2021/12/25 03:46:31;;;;;;;2.30;1.02;;;;;;;-6.15;68.66;101190.59;5023710;28;20041;-71
2021/12/25 03:49:12;;;;;;;1.33;0.80;;;;;;;-6.11;68.48;101200.63;5020255;28;20040;-71
2021/12/25 03:59:59;;;;;;;2.25;0.90;;;;;;;-6.10;68.17;101211.91;5020257;28;20448;-70
2021/12/25 04:02:33;;;;;;;1.65;0.77;;;;;;;-6.11;68.34;101225.88;5020396;28;20044;-71
2021/12/25 04:05:01;;;;;;;3.40;0.90;;;;;;;-6.13;68.59;101223.41;5019953;28;20033;-71
2021/12/25 04:10:10;;;;;;;1.70;0.80;;;;;;;-6.14;67.88;101224.38;5017316;28;20044;-70
2021/12/25 04:12:35;;;;;;;1.42;1.20;;;;;;;-6.14;68.14;101228.75;5023641;28;20033;-70
2021/12/25 04:15:01;;;;;;;3.22;1.35;;;;;;;-6.16;67.71;101228.06;5021905;28;20103;-70
2021/12/25 04:17:26;;;;;;;1.75;0.65;;;;;;;-6.16;67.97;101235.88;5025205;28;20086;-70
2021/12/25 04:19:52;;;;;;;1.25;0.85;;;;;;;-6.17;67.81;101234.22;5025391;28;20154;-70
2021/12/25 04:22:26;;;;;;;0.68;0.60;;;;;;;-6.20;67.67;101231.88;5030512;28;20052;-71
2021/12/25 04:24:52;;;;;;;2.03;0.88;;;;;;;-6.21;68.16;101232.84;5025790;28;20123;-70
2021/12/25 04:27:18;;;;;;;3.85;1.17;;;;;;;-6.22;67.39;101228.59;5008462;28;20036;-71
2021/12/25 04:29:57;;;;;;;0.88;0.70;;;;;;;-6.25;67.26;101234.06;5022818;28;20018;-70
2021/12/25 05:04:38;;;;;;;1.98;1.02;;;;;;;-6.57;67.32;101240.13;5023318;28;20381;-71
2021/12/25 05:07:08;;;;;;;3.42;1.05;;;;;;;-6.57;67.47;101247.13;5003560;28;20025;-70
2021/12/25 05:09:34;;;;;;;1.40;0.80;;;;;;;-6.57;67.47;101254.94;5023486;28;20025;-70
2021/12/25 05:12:00;;;;;;;2.75;0.57;;;;;;;-6.58;66.87;101263.72;5001100;28;20181;-71
2021/12/25 05:14:25;;;;;;;1.45;0.77;;;;;;;-6.61;66.73;101254.38;5022556;28;20033;-71
2021/12/25 05:16:52;;;;;;;1.70;0.90;;;;;;;-6.63;66.67;101253.69;5022409;28;20026;-70
2021/12/25 05:19:18;;;;;;;3.72;0.70;;;;;;;-6.67;66.69;101251.41;5021439;28;20029;-70
2021/12/25 05:21:44;;;;;;;2.00;0.70;;;;;;;-6.70;66.44;101245.50;5002154;28;20058;-71
2021/12/25 05:24:09;;;;;;;1.40;0.57;;;;;;;-6.73;66.45;101248.38;5022990;28;20041;-71
2021/12/25 05:26:35;;;;;;;1.40;0.73;;;;;;;-6.73;67.22;101250.97;5026314;28;20108;-71
2021/12/25 05:29:02;;;;;;;1.25;0.85;;;;;;;-6.74;66.73;101253.72;5023542;28;20079;-71
2021/12/25 05:31:30;;;;;;;3.47;1.15;;;;;;;-6.79;66.86;101258.47;5025374;28;20029;-71
2021/12/25 05:33:56;;;;;;;1.55;0.80;;;;;;;-6.79;66.53;101263.69;5024613;28;20028;-71
2021/12/25 05:36:24;;;;;;;1.15;0.75;;;;;;;-6.79;66.59;101271.50;5006320;28;21521;-71
2021/12/25 05:38:50;;;;;;;1.25;0.75;;;;;;;-6.82;66.69;101279.53;5020598;28;20036;-71
2021/12/25 05:41:16;;;;;;;2.00;1.02;;;;;;;-6.83;66.73;101281.31;5021075;28;20025;-71
2021/12/25 05:43:41;;;;;;;1.40;0.73;;;;;;;-6.85;66.76;101285.81;5025307;28;20134;-71
2021/12/25 05:46:07;;;;;;;2.22;1.08;;;;;;;-6.86;67.00;101285.94;5023244;28;20033;-71
2021/12/25 05:48:35;;;;;;;1.45;0.90;;;;;;;-6.84;66.98;101284.03;5020528;28;20098;-71
2021/12/25 05:51:05;;;;;;;1.60;0.85;;;;;;;-6.84;66.78;101289.25;5021992;28;20029;-71
2021/12/25 05:53:31;;;;;;;1.40;0.63;;;;;;;-6.83;66.78;101293.50;5019782;28;20101;-71
2021/12/25 05:55:57;;;;;;;2.13;0.90;;;;;;;-6.84;66.23;101299.66;5018908;28;20034;-71
2021/12/25 05:58:23;;;;;;;3.15;1.00;;;;;;;-6.87;66.18;101297.31;5020209;28;20048;-71
2021/12/25 06:00:49;;;;;;;0.85;0.80;;;;;;;-6.91;66.10;101301.13;5020204;28;20079;-71
2021/12/25 06:03:14;;;;;;;1.67;0.95;;;;;;;-6.98;66.33;101289.53;5021339;28;20034;-71
2021/12/25 06:05:40;;;;;;;3.28;0.88;;;;;;;-6.98;66.59;101303.41;5005733;28;20063;-71
2021/12/25 06:08:06;;;;;;;1.80;1.00;;;;;;;-6.98;66.44;101306.00;5019849;28;20897;-71
2021/12/25 06:10:31;;;;;;;1.83;0.80;;;;;;;-6.99;66.59;101306.13;5019494;28;20025;-71
2021/12/25 06:12:59;;;;;;;2.85;0.93;;;;;;;-7.01;66.17;101309.66;5021025;28;20231;-71
2021/12/25 06:15:26;;;;;;;2.10;1.20;;;;;;;-7.01;66.30;101303.63;5022729;28;20030;-71
2021/12/25 06:17:52;;;;;;;1.77;1.05;;;;;;;-7.02;66.05;101294.97;5004392;28;20021;-71
2021/12/25 06:20:17;;;;;;;3.45;1.10;;;;;;;-7.04;66.01;101304.69;5022346;28;20044;-71
2021/12/25 06:22:43;;;;;;;3.28;1.00;;;;;;;-7.04;66.20;101299.47;5004267;28;20021;-71
2021/12/25 06:25:08;;;;;;;1.20;1.08;;;;;;;-7.05;66.14;101303.03;5018208;28;20057;-71
2021/12/25 06:27:34;;;;;;;2.15;0.88;;;;;;;-7.07;66.21;101299.72;5020410;28;20517;-71
2021/12/25 06:30:00;;;;;;;1.60;0.90;;;;;;;-7.05;65.75;101297.00;5019788;28;20040;-71
2021/12/25 06:32:25;;;;;;;2.08;1.10;;;;;;;-7.07;66.09;101294.50;5021795;28;20037;-71
2021/12/25 06:34:51;;;;;;;2.65;1.00;;;;;;;-7.11;66.03;101293.09;5021396;28;20032;-71
2021/12/25 06:37:18;;;;;;;2.97;1.15;;;;;;;-7.13;66.02;101300.22;5004766;28;20017;-71
2021/12/25 06:39:44;;;;;;;2.15;1.02;;;;;;;-7.17;66.28;101298.81;5022715;28;20025;-71
2021/12/25 06:42:10;;;;;;;2.03;1.00;;;;;;;-7.18;66.13;101301.50;5018702;28;20030;-71
2021/12/25 06:44:36;;;;;;;1.35;1.10;;;;;;;-7.18;65.90;101307.56;5020707;28;20058;-71
2021/12/25 06:47:02;;;;;;;2.05;1.20;;;;;;;-7.18;65.79;101311.91;5021831;28;20037;-71
2021/12/25 06:49:28;;;;;;;4.38;1.33;;;;;;;-7.21;65.80;101315.59;5022022;28;20084;-71
2021/12/25 06:51:54;;;;;;;2.63;1.17;;;;;;;-7.21;65.81;101315.59;5019624;28;20567;-71
2021/12/25 06:54:20;;;;;;;2.63;1.35;;;;;;;-7.23;66.13;101314.88;5019617;28;20108;-71
2021/12/25 06:56:47;;;;;;;3.88;1.17;;;;;;;-7.21;65.98;101312.16;5020872;28;20030;-71
2021/12/25 06:59:13;;;;;;;2.95;1.35;;;;;;;-7.21;65.56;101317.38;5002468;28;20045;-71
2021/12/25 07:01:40;;;;;;;3.92;1.42;;;;;;;-7.24;65.62;101318.44;5020201;28;20040;-71
2021/12/25 07:04:09;;;;;;;3.00;1.67;;;;;;;-7.24;65.94;101325.41;5021713;28;20025;-71
2021/12/25 07:06:35;;;;;;;4.00;2.00;;;;;;;-7.26;65.80;101328.16;5003511;28;20040;-71
2021/12/25 07:09:02;;;;;;;4.80;1.88;;;;;;;-7.31;65.37;101325.06;5002753;28;20033;-71
2021/12/25 07:11:28;;;;;;;4.55;1.63;;;;;;;-7.34;66.04;101328.75;5003061;28;20033;-71
2021/12/25 07:13:54;;;;;;;2.97;1.30;;;;;;;-7.38;65.86;101331.69;5020295;28;20079;-71
2021/12/25 07:16:19;;;;;;;2.00;1.10;;;;;;;-7.37;66.17;101325.53;5019509;28;20478;-71
2021/12/25 07:18:46;;;;;;;3.33;1.80;;;;;;;-7.39;65.72;101330.03;5005987;28;20056;-71
2021/12/25 07:21:13;;;;;;;1.77;1.02;;;;;;;-7.44;65.82;101339.97;5019151;28;20041;-71
2021/12/25 07:23:38;;;;;;;2.90;1.15;;;;;;;-7.43;66.10;101337.25;4999158;28;20029;-71
2021/12/25 07:26:05;;;;;;;2.05;1.20;;;;;;;-7.41;66.19;101348.38;5019740;28;20183;-71
2021/12/25 07:28:31;;;;;;;1.98;1.10;;;;;;;-7.41;66.14;101340.56;5015875;28;20030;-71
2021/12/25 07:31:00;;;;;;;3.50;1.35;;;;;;;-7.38;66.33;101331.69;5018813;28;20091;-71
2021/12/25 07:33:26;;;;;;;1.88;1.10;;;;;;;-7.37;65.83;101334.16;5021260;28;20021;-71
2021/12/25 07:35:52;;;;;;;2.95;1.17;;;;;;;-7.36;66.13;101335.84;5019291;28;20645;-71
2021/12/25 07:38:18;;;;;;;1.63;1.10;;;;;;;-7.37;65.97;101347.19;5019644;28;20065;-71
2021/12/25 07:40:45;;;;;;;3.83;1.48;;;;;;;-7.37;65.82;101339.38;4998309;28;20034;-71
2021/12/25 07:43:10;;;;;;;3.10;1.70;;;;;;;-7.38;65.90;101347.31;5018101;28;20112;-70
2021/12/25 07:45:36;;;;;;;3.97;1.60;;;;;;;-7.37;65.87;101344.56;5020349;28;20661;-71
2021/12/25 07:48:03;;;;;;;3.40;1.13;;;;;;;-7.35;66.18;101352.31;5025141;28;20048;-73
2021/12/25 07:50:32;;;;;;;5.30;1.60;;;;;;;-7.33;65.76;101347.81;5023204;28;20033;-73
2021/12/25 07:52:58;;;;;;;2.78;1.40;;;;;;;-7.34;65.57;101344.38;5022212;28;20567;-71
2021/12/25 07:55:29;;;;;;;4.13;1.30;;;;;;;-7.31;65.60;101344.13;5022586;28;20107;-70
2021/12/25 07:57:55;;;;;;;3.83;1.60;;;;;;;-7.29;65.83;101351.81;5003021;28;20018;-75
2021/12/25 08:00:21;;;;;;;3.92;1.95;;;;;;;-7.26;65.63;101356.78;5019512;28;20344;-70
2021/12/25 08:02:47;;;;;;;2.22;1.63;;;;;;;-7.25;65.49;101358.44;5023931;28;20025;-74
2021/12/25 08:05:12;;;;;;;5.38;1.83;;;;;;;-7.22;65.46;101353.00;5024736;28;20037;-71
2021/12/25 08:07:38;;;;;;;4.97;1.80;;;;;;;-7.18;65.63;101364.00;5023876;28;20037;-70
2021/12/25 08:10:17;;;;;;;2.95;1.55;;;;;;;-7.14;65.51;101362.84;5017807;28;20029;-74
2021/12/25 08:12:56;;;;;;;5.88;2.22;;;;;;;-7.11;66.01;101358.22;5021123;28;20055;-70
2021/12/25 08:15:25;;;;;;;2.58;1.60;;;;;;;-7.05;65.66;101351.69;5020691;28;20552;-72
2021/12/25 08:17:51;;;;;;;4.60;1.77;;;;;;;-6.99;65.45;101355.63;5022387;28;20033;-71
2021/12/25 08:20:18;;;;;;;3.85;2.00;;;;;;;-6.95;65.31;101359.63;5022286;28;20025;-71
2021/12/25 08:22:44;;;;;;;5.40;2.10;;;;;;;-6.92;65.06;101369.81;5024173;28;20489;-72
2021/12/25 08:25:12;;;;;;;4.35;2.20;;;;;;;-6.87;64.99;101378.09;5021692;28;20030;-70
2021/12/25 08:27:38;;;;;;;3.72;2.30;;;;;;;-6.81;65.78;101377.63;5005006;28;20125;-71
2021/12/25 08:30:08;;;;;;;7.00;3.13;;;;;;;-6.77;65.64;101371.22;5001128;28;20067;-71
2021/12/25 08:32:34;;;;;;;5.47;2.25;;;;;;;-6.72;65.29;101369.91;5019776;28;20025;-72
2021/12/25 08:35:00;;;;;;;6.88;2.38;;;;;;;-6.70;65.41;101381.03;5020525;28;20036;-71
2021/12/25 08:37:26;;;;;;;3.70;2.05;;;;;;;-6.67;65.71;101387.75;5020545;28;20459;-75
2021/12/25 08:39:53;;;;;;;3.35;2.10;;;;;;;-6.62;64.99;101400.47;5019822;28;20775;-72
2021/12/25 08:42:21;;;;;;;3.97;2.10;;;;;;;-6.59;65.17;101400.22;5006566;28;20037;-71
2021/12/25 08:47:26;;;;;;;5.32;2.67;;;;;;;-6.54;64.95;101385.03;5020720;28;20180;-72
2021/12/25 08:49:52;;;;;;;7.43;3.33;;;;;;;-6.54;64.68;101385.03;5019456;28;20083;-72
2021/12/25 08:52:20;;;;;;;6.78;3.30;;;;;;;-6.53;65.09;101395.31;5021506;28;20448;-71
2021/12/25 08:54:48;;;;;;;6.82;3.80;;;;;;;-6.48;65.47;101397.56;5023480;28;20021;-71
2021/12/25 08:57:16;;;;;;;6.85;2.95;;;;;;;-6.41;65.05;101391.75;5018747;28;20026;-71
2021/12/25 08:59:42;;;;;;;4.95;2.70;;;;;;;-6.32;65.51;101395.41;5020701;28;20067;-72
2021/12/25 09:02:12;;;;;;;5.03;2.67;;;;;;;-6.31;64.85;101388.41;5018390;28;20083;-72
2021/12/25 09:04:39;;;;;;;5.45;2.10;;;;;;;-6.24;65.01;101390.41;5022475;28;20104;-72
2021/12/25 09:07:05;;;;;;;4.00;2.33;;;;;;;-6.16;65.09;101400.22;5019884;28;20025;-72
2021/12/25 09:09:31;;;;;;;4.88;2.40;;;;;;;-6.06;65.41;101410.75;5005361;28;20029;-70
2021/12/25 09:11:57;;;;;;;3.03;2.03;;;;;;;-5.93;65.65;101414.81;5019108;28;20033;-72
2021/12/25 09:14:23;;;;;;;5.22;2.30;;;;;;;-5.81;65.51;101408.56;5006031;28;20052;-70
2021/12/25 09:16:48;;;;;;;4.72;2.97;;;;;;;-5.68;65.26;101415.41;5021783;28;20099;-72
2021/12/25 09:19:14;;;;;;;8.90;4.57;;;;;;;-5.77;65.43;101417.81;5022966;28;20133;-71
2021/12/25 09:21:40;;;;;;;4.78;3.20;;;;;;;-6.16;66.06;101423.69;5022209;28;20037;-71
2021/12/25 09:24:06;;;;;;;8.00;3.15;;;;;;;-6.48;66.90;101421.84;5021522;28;20663;-73
2021/12/25 09:26:32;;;;;;;9.10;2.85;;;;;;;-6.44;67.22;101412.88;5023311;28;20025;-73
2021/12/25 09:28:58;;;;;;;6.25;3.25;;;;;;;-6.24;68.33;101413.88;5015869;28;20489;-71
2021/12/25 09:31:24;;;;;;;6.90;3.28;;;;;;;-6.00;67.60;101418.88;5019285;28;20037;-71
2021/12/25 09:33:52;;;;;;;10.95;2.70;;;;;;;-5.86;67.38;101422.97;5021426;28;20116;-71
2021/12/25 09:36:18;;;;;;;5.65;3.15;;;;;;;-5.90;67.70;101418.97;5020274;28;20037;-70
2021/12/25 09:38:44;;;;;;;4.97;2.70;;;;;;;-5.98;67.78;101413.53;5021933;28;20052;-71
2021/12/25 09:41:11;;;;;;;4.32;2.28;;;;;;;-6.27;67.66;101410.69;5004973;28;20036;-70
2021/12/25 09:43:39;;;;;;;3.92;1.80;;;;;;;-6.57;69.05;101417.38;5022514;28;20033;-71
2021/12/25 09:46:04;;;;;;;5.78;2.10;;;;;;;-6.80;69.46;101424.41;5019167;28;20036;-71
2021/12/25 09:48:30;;;;;;;5.95;2.40;;;;;;;-6.58;70.16;101422.72;5016652;28;20033;-73
2021/12/25 09:50:56;;;;;;;4.93;2.13;;;;;;;-6.46;69.86;101425.19;5021441;28;20030;-71
2021/12/25 09:53:23;;;;;;;3.25;1.80;;;;;;;-6.52;70.25;101430.03;5016933;28;20037;-71
2021/12/25 09:55:48;;;;;;;4.55;1.90;;;;;;;-6.38;70.26;101421.13;5003459;28;20033;-71
2021/12/25 09:58:14;;;;;;;4.72;3.00;;;;;;;-6.15;69.78;101417.50;5022610;28;20732;-70
2021/12/25 10:00:45;;;;;;;5.20;2.30;;;;;;;-6.17;69.92;101419.41;5020240;28;20624;-71
2021/12/25 10:03:10;;;;;;;6.85;2.47;;;;;;;-6.40;70.05;101423.88;5006520;28;20041;-71
2021/12/25 10:05:41;;;;;;;4.22;2.22;;;;;;;-6.54;71.06;101426.72;5020668;28;20029;-72
2021/12/25 10:08:11;;;;;;;3.28;1.70;;;;;;;-6.70;71.20;101427.94;5019705;28;20108;-74
2021/12/25 10:10:49;;;;;;;6.78;2.55;;;;;;;-6.73;72.17;101429.94;5018677;28;20037;-73
2021/12/25 10:13:17;;;;;;;4.85;2.33;;;;;;;-6.45;72.31;101434.69;5022285;28;20061;-71
2021/12/25 10:15:43;;;;;;;4.78;2.20;;;;;;;-6.29;71.52;101428.22;5018726;28;20100;-70
2021/12/25 10:18:08;;;;;;;5.55;2.70;;;;;;;-6.05;71.42;101418.44;5021468;28;20026;-71
2021/12/25 10:20:34;;;;;;;5.63;2.58;;;;;;;-5.91;70.88;101415.56;5018130;28;20379;-71
2021/12/25 10:23:07;;;;;;;4.32;2.38;;;;;;;-5.77;70.66;101412.59;5008994;28;20033;-70
2021/12/25 10:25:42;;;;;;;9.07;2.35;;;;;;;-5.69;69.90;101409.34;5022236;28;20159;-70
2021/12/25 10:28:10;;;;;;;5.88;2.45;;;;;;;-5.84;70.55;101405.41;5014023;28;20040;-71
2021/12/25 10:30:49;;;;;;;11.75;2.47;;;;;;;-5.97;70.95;101409.97;5002541;28;20032;-73
2021/12/25 10:33:27;;;;;;;3.20;1.77;;;;;;;-5.97;71.17;101421.25;5019324;28;20061;-70
2021/12/25 10:35:54;;;;;;;3.30;2.17;;;;;;;-5.76;71.57;101410.78;5022326;28;20040;-73
2021/12/25 10:38:22;;;;;;;6.45;2.28;;;;;;;-5.69;71.08;101413.75;5022076;28;20036;-70
2021/12/25 10:40:47;;;;;;;6.18;2.30;;;;;;;-5.71;70.47;101415.66;5004043;28;20715;-71
2021/12/25 10:43:22;;;;;;;5.85;2.13;;;;;;;-5.82;70.81;101414.75;5017530;28;20037;-71
2021/12/25 10:46:01;;;;;;;3.72;2.35;;;;;;;-5.85;71.55;101409.78;5000526;28;20091;-70
2021/12/25 10:48:29;;;;;;;5.88;2.00;;;;;;;-5.61;71.44;101408.72;5021480;28;20041;-73
2021/12/25 10:50:55;;;;;;;2.78;1.80;;;;;;;-5.42;70.48;101406.22;5021758;28;20521;-70
2021/12/25 10:53:26;;;;;;;3.70;1.80;;;;;;;-5.25;70.71;101412.66;5023049;28;20140;-73
2021/12/25 10:55:53;;;;;;;4.63;2.28;;;;;;;-5.32;70.44;101414.97;5005554;28;20030;-71
2021/12/25 10:58:22;;;;;;;3.67;2.15;;;;;;;-5.30;70.55;101418.25;5023860;28;20520;-73
2021/12/25 11:00:55;;;;;;;3.42;1.88;;;;;;;-5.01;70.17;101423.66;5017951;28;20037;-71
2021/12/25 11:03:35;;;;;;;4.07;2.13;;;;;;;-4.68;69.84;101412.06;5024787;28;20489;-72
2021/12/25 11:06:04;;;;;;;7.90;2.97;;;;;;;-4.47;68.76;101421.66;5019966;28;20279;-72
2021/12/25 11:08:30;;;;;;;4.90;2.00;;;;;;;-4.39;69.36;101412.16;5022034;28;20456;-71
2021/12/25 11:11:07;;;;;;;3.33;2.35;;;;;;;-4.13;68.25;101412.47;5021963;28;20021;-71
2021/12/25 11:13:42;;;;;;;5.35;2.40;;;;;;;-3.88;67.73;101405.03;4999366;28;20120;-74
2021/12/25 11:16:22;;;;;;;6.25;2.42;;;;;;;-3.67;67.01;101409.16;5016276;28;20164;-73
2021/12/25 11:19:10;;;;;;;3.10;2.20;;;;;;;-3.52;66.35;101421.84;5022593;28;20033;-71
2021/12/25 11:21:54;;;;;;;2.85;2.00;;;;;;;-3.32;66.87;101422.63;5019261;28;20032;-71
2021/12/25 11:24:23;;;;;;;6.32;2.38;;;;;;;-3.08;66.60;101415.09;5040407;23;20504;-48
2021/12/25 11:26:59;;;;;;;4.53;2.10;;;;;;;-2.85;65.92;101405.09;5035630;28;20029;-52
2021/12/25 11:29:27;;;;;;;9.23;3.22;;;;;;;-2.64;65.70;101418.81;5042211;28;20396;-52
2021/12/25 11:31:55;;;;;;;3.60;2.45;;;;;;;-2.34;65.08;101419.44;5041549;28;20067;-50
2021/12/25 11:34:22;;;;;;;4.45;2.65;;;;;;;-2.08;64.60;101414.31;5041251;28;20154;-49
2021/12/25 11:36:50;;;;;;;4.63;2.22;;;;;;;-1.78;64.09;101421.84;5038705;28;20056;-50
2021/12/25 11:39:17;;;;;;;3.80;2.47;;;;;;;-1.52;63.46;101412.19;5042206;28;20041;-50
2021/12/25 11:41:44;;;;;;;2.30;2.05;;;;;;;-1.36;63.28;101415.91;5040159;28;20032;-49
2021/12/25 11:44:51;;;;;;;6.25;2.50;;;;;;;-1.24;63.01;101412.06;5043581;28;20388;-50
2021/12/25 11:47:39;;;;;;;4.90;1.80;;;;;;;-0.98;62.30;101425.19;5035649;28;20543;-49
2021/12/25 11:50:07;;;;;;;6.68;3.03;;;;;;;-0.82;62.38;101420.00;5041493;28;20029;-49
2021/12/25 11:52:43;;;;;;;7.53;2.65;;;;;;;-0.58;61.51;101429.00;5042457;28;20510;-53
2021/12/25 11:56:02;;;;;;;3.85;2.30;;;;;;;-0.41;60.91;101423.63;5033525;28;20511;-49
2021/12/25 11:58:42;;;;;;;6.18;2.53;;;;;;;-0.29;60.56;101425.97;5038431;28;20512;-51
2021/12/25 12:01:42;;;;;;;5.63;2.40;;;;;;;-0.24;60.82;101423.66;5040900;28;20115;-49
2021/12/25 12:04:10;;;;;;;5.25;2.33;;;;;;;-0.18;60.69;101429.13;5042955;28;20025;-51
2021/12/25 12:06:48;;;;;;;4.55;2.00;;;;;;;-0.14;60.60;101434.91;5039177;28;20083;-53
2021/12/25 12:09:23;;;;;;;4.03;1.90;;;;;;;-0.05;60.34;101436.56;5039200;28;20032;-49
2021/12/25 12:12:23;;;;;;;6.90;2.33;;;;;;;0.05;60.02;101439.88;5040258;28;20035;-50
2021/12/25 12:15:24;;;;;;;5.65;1.85;;;;;;;0.15;60.09;101434.44;5034932;28;20047;-49
2021/12/25 12:17:50;;;;;;;2.83;1.70;;;;;;;0.33;60.12;101437.75;4980824;28;20058;-48
2021/12/25 12:20:35;;;;;;;3.65;1.60;;;;;;;0.46;60.01;101437.28;5028857;28;20064;-49
2021/12/25 12:23:30;;;;;;;3.25;1.60;;;;;;;0.63;59.63;101438.09;5041384;28;20025;-49
2021/12/25 12:26:04;;;;;;;2.88;1.60;;;;;;;0.77;59.41;101424.22;5040907;28;20312;-50
2021/12/25 12:28:46;;;;;;;3.95;1.90;;;;;;;0.90;59.23;101424.53;5037867;28;20510;-49
2021/12/25 12:31:36;;;;;;;5.00;2.58;;;;;;;0.99;58.88;101415.59;5038810;28;20032;-51
2021/12/25 12:34:31;;;;;;;4.53;2.60;;;;;;;1.05;58.77;101409.63;5035070;28;20504;-51
2021/12/25 12:37:15;;;;;;;3.38;1.80;;;;;;;1.14;58.39;101407.81;5046745;28;20037;-48
2021/12/25 12:39:59;;;;;;;4.43;2.17;;;;;;;1.26;58.43;101401.19;5041054;28;20235;-49
2021/12/25 12:42:40;;;;;;;3.88;1.80;;;;;;;1.31;58.11;101411.22;5040131;28;20021;-52
2021/12/25 12:45:33;;;;;;;3.40;2.10;;;;;;;1.29;58.04;101418.50;5040559;28;20168;-49
2021/12/25 12:48:20;;;;;;;3.47;2.05;;;;;;;1.35;58.32;101418.63;5033118;28;20045;-50
2021/12/25 12:50:50;;;;;;;8.45;2.35;;;;;;;1.39;57.77;101414.63;5043899;28;20025;-51
2021/12/25 12:53:17;;;;;;;7.88;2.33;;;;;;;1.37;57.90;101416.63;5045092;28;20033;-49